createdAt,value
2019-03-09T00:00:53.823Z,8.37
2019-03-09T00:01:53.741Z,8.36
2019-03-09T00:02:53.660Z,8.39
2019-03-09T00:03:53.582Z,8.48
2019-03-09T00:04:53.501Z,8.42
2019-03-09T00:05:53.450Z,8.39
2019-03-09T00:06:53.341Z,8.43
2019-03-09T00:07:53.262Z,8.52
2019-03-09T00:08:53.196Z,8.44
2019-03-09T00:09:53.102Z,8.48
2019-03-09T00:10:53.022Z,8.44
2019-03-09T00:11:52.942Z,8.40
2019-03-09T00:12:52.861Z,8.42
2019-03-09T00:13:52.781Z,8.39
2019-03-09T00:14:52.703Z,8.39
2019-03-09T00:15:52.657Z,8.43
2019-03-09T00:16:52.543Z,8.37
2019-03-09T00:17:52.462Z,8.43
2019-03-09T00:18:52.381Z,8.33
2019-03-09T00:19:52.303Z,8.30
2019-03-09T00:20:52.228Z,8.19
2019-03-09T00:21:52.143Z,8.33
2019-03-09T00:22:52.066Z,8.37
2019-03-09T00:23:51.995Z,8.42
2019-03-09T00:24:51.903Z,8.42
2019-03-09T00:25:51.823Z,8.30
2019-03-09T00:26:51.743Z,8.36
2019-03-09T00:27:51.664Z,8.33
2019-03-09T00:28:51.583Z,8.30
2019-03-09T00:29:51.507Z,8.32
2019-03-09T00:30:51.425Z,8.27
2019-03-09T00:31:51.343Z,8.24
2019-03-09T00:32:51.270Z,8.21
2019-03-09T00:33:51.184Z,8.21
2019-03-09T00:34:51.132Z,8.21
2019-03-09T00:35:51.023Z,8.21
2019-03-09T00:36:50.950Z,8.21
2019-03-09T00:37:51.068Z,8.29
2019-03-09T00:38:50.785Z,8.33
2019-03-09T00:39:50.705Z,8.40
2019-03-09T00:40:50.627Z,8.42
2019-03-09T00:41:50.544Z,8.39
2019-03-09T00:42:50.573Z,8.42
2019-03-09T00:43:50.386Z,8.51
2019-03-09T00:44:50.305Z,8.44
2019-03-09T00:45:50.225Z,8.47
2019-03-09T00:46:50.143Z,8.36
2019-03-09T00:47:50.066Z,8.43
2019-03-09T00:48:49.988Z,8.40
2019-03-09T00:49:49.912Z,8.48
2019-03-09T00:50:49.824Z,8.39
2019-03-09T00:51:49.745Z,8.44
2019-03-09T00:52:49.670Z,8.37
2019-03-09T00:53:49.585Z,8.43
2019-03-09T00:54:49.505Z,8.51
2019-03-09T00:55:49.456Z,8.54
2019-03-09T00:56:49.344Z,8.54
2019-03-09T00:57:49.266Z,8.51
2019-03-09T00:58:49.184Z,8.44
2019-03-09T00:59:49.106Z,8.47
2019-03-09T01:00:49.025Z,8.48
2019-03-09T01:01:48.945Z,8.54
2019-03-09T01:02:50.956Z,8.54
2019-03-09T01:03:48.784Z,8.50
2019-03-09T01:04:48.705Z,8.52
2019-03-09T01:05:48.628Z,8.42
2019-03-09T01:06:48.555Z,8.42
2019-03-09T01:07:48.464Z,8.50
2019-03-09T01:08:48.385Z,8.57
2019-03-09T01:09:48.303Z,8.55
2019-03-09T01:10:48.228Z,8.57
2019-03-09T01:11:48.146Z,8.62
2019-03-09T01:12:48.065Z,8.60
2019-03-09T01:13:47.984Z,8.58
2019-03-09T01:14:47.930Z,8.54
2019-03-09T01:15:47.830Z,8.57
2019-03-09T01:16:47.746Z,8.57
2019-03-09T01:17:47.666Z,8.55
2019-03-09T01:18:47.587Z,8.79
2019-03-09T01:19:47.507Z,8.70
2019-03-09T01:20:47.428Z,8.77
2019-03-09T01:21:47.348Z,8.69
2019-03-09T01:22:47.274Z,8.66
2019-03-09T01:23:47.188Z,8.88
2019-03-09T01:24:47.109Z,8.88
2019-03-09T01:25:47.028Z,8.87
2019-03-09T01:26:46.948Z,8.94
2019-03-09T01:27:47.074Z,8.88
2019-03-09T01:28:46.792Z,8.91
2019-03-09T01:29:46.708Z,8.90
2019-03-09T01:30:46.653Z,8.90
2019-03-09T01:31:46.549Z,8.94
2019-03-09T01:32:46.469Z,8.93
2019-03-09T01:33:46.488Z,8.93
2019-03-09T01:34:46.309Z,8.93
2019-03-09T01:35:46.230Z,8.95
2019-03-09T01:36:46.149Z,8.95
2019-03-09T01:37:46.069Z,8.84
2019-03-09T01:38:45.990Z,8.94
2019-03-09T01:39:45.909Z,8.88
2019-03-09T01:40:45.830Z,8.84
2019-03-09T01:41:45.750Z,8.84
2019-03-09T01:42:45.670Z,8.93
2019-03-09T01:43:45.591Z,8.91
2019-03-09T01:44:45.511Z,8.84
2019-03-09T01:45:45.432Z,8.82
2019-03-09T01:46:45.354Z,8.80
2019-03-09T01:47:45.270Z,8.80
2019-03-09T01:48:45.192Z,8.77
2019-03-09T01:49:45.110Z,8.84
2019-03-09T01:50:45.032Z,8.90
2019-03-09T01:51:44.953Z,8.85
2019-03-09T01:52:44.873Z,8.82
2019-03-09T01:53:44.791Z,8.77
2019-03-09T01:54:44.715Z,8.85
2019-03-09T01:55:44.632Z,8.90
2019-03-09T01:56:44.553Z,8.93
2019-03-09T01:57:44.473Z,8.91
2019-03-09T01:58:44.392Z,8.93
2019-03-09T01:59:44.315Z,8.94
2019-03-09T02:00:44.233Z,8.88
2019-03-09T02:01:44.159Z,8.88
2019-03-09T02:02:44.073Z,8.93
2019-03-09T02:03:44.006Z,8.77
2019-03-09T02:04:43.913Z,8.66
2019-03-09T02:05:43.836Z,8.65
2019-03-09T02:06:43.755Z,8.76
2019-03-09T02:07:43.678Z,8.79
2019-03-09T02:08:43.595Z,8.79
2019-03-09T02:09:43.514Z,8.91
2019-03-09T02:10:43.434Z,8.88
2019-03-09T02:11:43.354Z,8.80
2019-03-09T02:12:43.279Z,8.87
2019-03-09T02:13:43.194Z,8.90
2019-03-09T02:14:43.116Z,8.85
2019-03-09T02:15:43.035Z,8.88
2019-03-09T02:16:42.955Z,8.88
2019-03-09T02:17:43.094Z,8.84
2019-03-09T02:18:42.795Z,8.85
2019-03-09T02:19:42.717Z,8.93
2019-03-09T02:20:42.635Z,8.98
2019-03-09T02:21:42.554Z,8.94
2019-03-09T02:22:42.475Z,9.05
2019-03-09T02:23:42.396Z,9.05
2019-03-09T02:24:42.316Z,8.97
2019-03-09T02:25:42.235Z,9.03
2019-03-09T02:26:42.156Z,8.85
2019-03-09T02:27:42.077Z,8.84
2019-03-09T02:28:42.000Z,8.84
2019-03-09T02:29:41.915Z,8.69
2019-03-09T02:30:41.838Z,8.91
2019-03-09T02:31:41.756Z,8.84
2019-03-09T02:32:41.705Z,9.02
2019-03-09T02:33:41.596Z,8.91
2019-03-09T02:34:41.515Z,8.91
2019-03-09T02:35:41.437Z,9.09
2019-03-09T02:36:41.357Z,9.03
2019-03-09T02:37:41.302Z,9.06
2019-03-09T02:38:41.244Z,9.02
2019-03-09T02:39:41.117Z,9.03
2019-03-09T02:40:41.037Z,9.12
2019-03-09T02:41:40.965Z,9.14
2019-03-09T02:42:40.879Z,9.17
2019-03-09T02:43:40.796Z,9.13
2019-03-09T02:44:40.715Z,9.12
2019-03-09T02:45:40.664Z,9.09
2019-03-09T02:46:40.585Z,9.06
2019-03-09T02:47:40.479Z,9.14
2019-03-09T02:48:40.397Z,9.20
2019-03-09T02:49:40.318Z,9.29
2019-03-09T02:50:40.244Z,9.22
2019-03-09T02:51:40.184Z,9.27
2019-03-09T02:52:40.077Z,9.16
2019-03-09T02:53:39.997Z,9.25
2019-03-09T02:54:39.919Z,9.32
2019-03-09T02:55:39.837Z,9.35
2019-03-09T02:56:39.774Z,9.32
2019-03-09T02:57:39.677Z,9.19
2019-03-09T02:58:39.598Z,9.20
2019-03-09T02:59:39.519Z,9.10
2019-03-09T03:00:39.772Z,9.06
2019-03-09T03:01:39.358Z,9.17
2019-03-09T03:02:39.278Z,9.25
2019-03-09T03:03:39.226Z,9.22
2019-03-09T03:04:39.118Z,9.20
2019-03-09T03:05:39.039Z,9.17
2019-03-09T03:06:38.960Z,9.16
2019-03-09T03:07:38.937Z,9.12
2019-03-09T03:08:38.834Z,9.00
2019-03-09T03:09:38.729Z,9.10
2019-03-09T03:10:38.640Z,9.05
2019-03-09T03:11:38.569Z,9.00
2019-03-09T03:12:38.481Z,8.90
2019-03-09T03:13:38.398Z,8.87
2019-03-09T03:14:38.319Z,8.80
2019-03-09T03:15:38.239Z,8.77
2019-03-09T03:16:38.162Z,8.87
2019-03-09T03:17:38.080Z,8.93
2019-03-09T03:18:38.003Z,8.87
2019-03-09T03:19:37.920Z,8.80
2019-03-09T03:20:37.844Z,8.90
2019-03-09T03:21:37.762Z,8.95
2019-03-09T03:22:37.683Z,8.95
2019-03-09T03:23:37.683Z,8.91
2019-03-09T03:24:37.522Z,8.94
2019-03-09T03:25:37.442Z,8.98
2019-03-09T03:26:37.370Z,8.87
2019-03-09T03:27:37.284Z,8.94
2019-03-09T03:28:37.204Z,9.02
2019-03-09T03:29:37.123Z,9.00
2019-03-09T03:30:37.044Z,9.10
2019-03-09T03:31:36.981Z,9.09
2019-03-09T03:32:36.896Z,9.06
2019-03-09T03:33:36.805Z,9.02
2019-03-09T03:34:36.753Z,8.98
2019-03-09T03:35:36.673Z,8.82
2019-03-09T03:36:36.565Z,8.97
2019-03-09T03:37:36.484Z,8.87
2019-03-09T03:38:36.404Z,8.82
2019-03-09T03:39:36.324Z,8.80
2019-03-09T03:40:36.275Z,8.84
2019-03-09T03:41:36.191Z,8.82
2019-03-09T03:42:36.086Z,8.84
2019-03-09T03:43:36.005Z,8.66
2019-03-09T03:44:35.955Z,8.79
2019-03-09T03:45:35.845Z,8.87
2019-03-09T03:46:35.769Z,8.93
2019-03-09T03:47:35.690Z,8.87
2019-03-09T03:48:35.609Z,8.82
2019-03-09T03:49:35.533Z,8.75
2019-03-09T03:50:35.447Z,8.76
2019-03-09T03:51:35.366Z,8.68
2019-03-09T03:52:35.287Z,8.58
2019-03-09T03:53:35.207Z,8.50
2019-03-09T03:54:35.128Z,8.54
2019-03-09T03:55:35.049Z,8.47
2019-03-09T03:56:34.968Z,8.51
2019-03-09T03:57:34.908Z,8.37
2019-03-09T03:58:34.807Z,8.39
2019-03-09T03:59:34.728Z,8.42
2019-03-09T04:00:34.648Z,8.40
2019-03-09T04:01:34.567Z,8.39
2019-03-09T04:02:34.491Z,8.32
2019-03-09T04:03:34.409Z,8.37
2019-03-09T04:04:34.328Z,8.32
2019-03-09T04:05:34.246Z,8.25
2019-03-09T04:06:34.198Z,8.32
2019-03-09T04:07:34.087Z,8.18
2019-03-09T04:08:34.017Z,8.19
2019-03-09T04:09:33.927Z,8.17
2019-03-09T04:10:33.847Z,8.17
2019-03-09T04:11:33.767Z,8.18
2019-03-09T04:12:33.698Z,8.19
2019-03-09T04:13:33.608Z,8.24
2019-03-09T04:14:33.555Z,8.27
2019-03-09T04:15:33.447Z,8.22
2019-03-09T04:16:33.368Z,8.27
2019-03-09T04:17:33.285Z,8.22
2019-03-09T04:18:33.208Z,8.24
2019-03-09T04:19:33.125Z,8.22
2019-03-09T04:20:33.046Z,8.21
2019-03-09T04:21:32.965Z,8.21
2019-03-09T04:22:32.884Z,8.19
2019-03-09T04:23:32.808Z,8.18
2019-03-09T04:24:32.725Z,8.06
2019-03-09T04:25:32.745Z,8.07
2019-03-09T04:26:32.594Z,8.04
2019-03-09T04:27:32.483Z,8.03
2019-03-09T04:28:32.401Z,8.04
2019-03-09T04:29:32.322Z,8.12
2019-03-09T04:30:32.242Z,8.11
2019-03-09T04:31:32.168Z,8.01
2019-03-09T04:32:32.080Z,8.04
2019-03-09T04:33:32.000Z,7.91
2019-03-09T04:34:31.919Z,8.04
2019-03-09T04:35:31.838Z,8.00
2019-03-09T04:36:31.762Z,8.00
2019-03-09T04:37:31.677Z,8.04
2019-03-09T04:38:31.596Z,8.03
2019-03-09T04:39:31.516Z,8.11
2019-03-09T04:40:31.439Z,8.07
2019-03-09T04:41:31.379Z,8.01
2019-03-09T04:42:31.273Z,8.03
2019-03-09T04:43:31.194Z,8.03
2019-03-09T04:44:31.113Z,8.19
2019-03-09T04:45:31.031Z,8.19
2019-03-09T04:46:30.952Z,8.25
2019-03-09T04:47:30.870Z,8.25
2019-03-09T04:48:30.792Z,8.32
2019-03-09T04:49:30.709Z,8.27
2019-03-09T04:50:30.628Z,8.30
2019-03-09T04:51:30.551Z,8.33
2019-03-09T04:52:30.468Z,8.32
2019-03-09T04:53:30.388Z,8.33
2019-03-09T04:54:30.306Z,8.32
2019-03-09T04:55:30.225Z,8.40
2019-03-09T04:56:30.347Z,8.44
2019-03-09T04:57:30.064Z,8.48
2019-03-09T04:58:29.985Z,8.42
2019-03-09T04:59:29.903Z,8.48
2019-03-09T05:00:29.825Z,8.40
2019-03-09T05:01:29.741Z,8.36
2019-03-09T05:02:29.662Z,8.39
2019-03-09T05:03:29.783Z,8.48
2019-03-09T05:04:29.500Z,8.55
2019-03-09T05:05:29.421Z,8.44
2019-03-09T05:06:31.961Z,8.43
2019-03-09T05:07:29.258Z,8.39
2019-03-09T05:08:29.177Z,8.37
2019-03-09T05:09:29.096Z,8.47
2019-03-09T05:10:29.018Z,8.37
2019-03-09T05:11:28.936Z,8.40
2019-03-09T05:13:21.342Z,8.44
2019-03-09T05:14:21.261Z,8.44
2019-03-09T05:15:21.179Z,8.51
2019-03-09T05:16:21.099Z,8.43
2019-03-09T05:17:21.019Z,8.51
2019-03-09T05:18:20.937Z,8.47
2019-03-09T05:19:20.857Z,8.44
2019-03-09T05:20:20.776Z,8.51
2019-03-09T05:21:20.695Z,8.43
2019-03-09T05:22:20.615Z,8.39
2019-03-09T05:23:20.534Z,8.36
2019-03-09T05:24:20.453Z,8.37
2019-03-09T05:25:20.372Z,8.36
2019-03-09T05:26:20.293Z,8.25
2019-03-09T05:27:20.414Z,8.40
2019-03-09T05:28:20.130Z,8.36
2019-03-09T05:29:20.050Z,8.36
2019-03-09T05:30:19.968Z,8.27
2019-03-09T05:31:19.888Z,8.33
2019-03-09T05:32:19.808Z,8.36
2019-03-09T05:33:19.726Z,8.24
2019-03-09T05:34:19.645Z,8.29
2019-03-09T05:35:19.565Z,8.30
2019-03-09T05:36:19.486Z,8.30
2019-03-09T05:37:19.404Z,8.32
2019-03-09T05:38:19.323Z,8.29
2019-03-09T05:39:19.243Z,8.29
2019-03-09T05:40:19.163Z,8.34
2019-03-09T05:41:19.083Z,8.25
2019-03-09T05:42:19.001Z,8.24
2019-03-09T05:43:18.923Z,8.36
2019-03-09T05:44:18.840Z,8.29
2019-03-09T05:45:18.759Z,8.27
2019-03-09T05:46:18.679Z,8.36
2019-03-09T05:47:18.598Z,8.33
2019-03-09T05:48:18.525Z,8.27
2019-03-09T05:49:18.436Z,8.40
2019-03-09T05:50:18.357Z,8.30
2019-03-09T05:51:18.275Z,8.27
2019-03-09T05:52:18.196Z,8.32
2019-03-09T05:53:18.119Z,8.29
2019-03-09T05:54:18.034Z,8.32
2019-03-09T05:55:17.953Z,8.32
2019-03-09T05:56:17.874Z,8.36
2019-03-09T05:57:17.792Z,8.36
2019-03-09T05:58:17.716Z,8.42
2019-03-09T05:59:17.631Z,8.29
2019-03-09T06:00:17.551Z,8.29
2019-03-09T06:01:17.469Z,8.32
2019-03-09T06:02:17.390Z,8.27
2019-03-09T06:03:17.309Z,8.29
2019-03-09T06:04:17.228Z,8.32
2019-03-09T06:05:17.151Z,8.33
2019-03-09T06:06:17.066Z,8.36
2019-03-09T06:07:16.989Z,8.40
2019-03-09T06:08:16.924Z,8.33
2019-03-09T06:09:16.824Z,8.34
2019-03-09T06:10:16.746Z,8.30
2019-03-09T06:11:16.669Z,8.24
2019-03-09T06:12:16.620Z,8.25
2019-03-09T06:13:16.503Z,8.25
2019-03-09T06:14:16.424Z,8.27
2019-03-09T06:15:16.342Z,8.30
2019-03-09T06:16:16.262Z,8.32
2019-03-09T06:17:16.180Z,8.32
2019-03-09T06:18:16.100Z,8.22
2019-03-09T06:19:16.020Z,8.29
2019-03-09T06:20:15.941Z,8.25
2019-03-09T06:21:15.859Z,8.22
2019-03-09T06:22:15.777Z,8.27
2019-03-09T06:23:15.699Z,8.30
2019-03-09T06:24:15.641Z,8.32
2019-03-09T06:25:15.540Z,8.30
2019-03-09T06:26:15.457Z,8.34
2019-03-09T06:27:15.407Z,8.30
2019-03-09T06:28:15.294Z,8.37
2019-03-09T06:29:15.225Z,8.32
2019-03-09T06:30:15.134Z,8.29
2019-03-09T06:31:15.053Z,8.30
2019-03-09T06:32:14.974Z,8.30
2019-03-09T06:33:14.893Z,8.32
2019-03-09T06:34:14.811Z,8.29
2019-03-09T06:35:14.730Z,8.29
2019-03-09T06:38:50.291Z,8.32
2019-03-09T06:39:50.205Z,8.24
2019-03-09T06:40:50.125Z,8.25
2019-03-09T06:41:50.044Z,8.22
2019-03-09T06:42:49.962Z,8.30
2019-03-09T06:43:49.882Z,8.30
2019-03-09T06:44:49.801Z,8.19
2019-03-09T06:45:49.721Z,8.18
2019-03-09T06:46:50.146Z,8.22
2019-03-09T06:47:49.559Z,8.24
2019-03-09T06:48:49.479Z,8.21
2019-03-09T06:49:49.399Z,8.19
2019-03-09T06:50:49.316Z,8.32
2019-03-09T06:51:49.236Z,8.27
2019-03-09T06:52:49.158Z,8.22
2019-03-09T06:53:49.077Z,8.15
2019-03-09T06:54:48.995Z,8.24
2019-03-09T06:55:48.913Z,8.21
2019-03-09T07:00:26.987Z,8.19
2019-03-09T07:01:26.879Z,8.21
2019-03-09T07:02:26.801Z,8.21
2019-03-09T07:04:19.264Z,8.22
2019-03-09T07:05:19.183Z,8.24
2019-03-09T07:06:21.725Z,8.30
2019-03-09T07:07:19.021Z,8.25
2019-03-09T07:08:18.945Z,8.29
2019-03-09T07:09:18.858Z,8.27
2019-03-09T07:10:18.777Z,8.27
2019-03-09T07:11:18.698Z,8.27
2019-03-09T07:12:18.626Z,8.30
2019-03-09T07:13:18.541Z,8.25
2019-03-09T07:14:18.458Z,8.29
2019-03-09T07:15:18.374Z,8.25
2019-03-09T07:16:18.294Z,8.25
2019-03-09T07:17:18.213Z,8.24
2019-03-09T07:18:18.131Z,8.32
2019-03-09T07:19:18.051Z,8.40
2019-03-09T07:20:17.972Z,8.33
2019-03-09T07:21:17.890Z,8.36
2019-03-09T07:22:17.810Z,8.34
2019-03-09T07:23:17.730Z,8.30
2019-03-09T07:24:17.649Z,8.43
2019-03-09T07:25:17.568Z,8.40
2019-03-09T07:26:17.488Z,8.37
2019-03-09T07:27:20.031Z,8.40
2019-03-09T07:28:17.330Z,8.48
2019-03-09T07:29:17.248Z,8.42
2019-03-09T07:30:17.167Z,8.37
2019-03-09T07:31:17.086Z,8.37
2019-03-09T07:32:17.006Z,8.42
2019-03-09T07:33:16.926Z,8.39
2019-03-09T07:34:16.852Z,8.42
2019-03-09T07:35:16.769Z,8.42
2019-03-09T07:36:16.689Z,8.44
2019-03-09T07:37:16.605Z,8.51
2019-03-09T07:38:16.529Z,8.51
2019-03-09T07:39:16.446Z,8.57
2019-03-09T07:40:16.365Z,8.54
2019-03-09T07:41:16.284Z,8.58
2019-03-09T07:42:16.204Z,8.52
2019-03-09T07:43:16.127Z,8.54
2019-03-09T07:44:16.246Z,8.55
2019-03-09T07:45:15.966Z,8.58
2019-03-09T07:46:15.884Z,8.57
2019-03-09T07:47:15.804Z,8.58
2019-03-09T07:48:15.724Z,8.66
2019-03-09T07:49:15.645Z,8.51
2019-03-09T07:50:15.566Z,8.58
2019-03-09T07:51:15.485Z,8.55
2019-03-09T07:52:15.404Z,8.55
2019-03-09T07:53:15.325Z,8.58
2019-03-09T07:54:15.246Z,8.66
2019-03-09T07:55:15.169Z,8.65
2019-03-09T07:56:15.288Z,8.66
2019-03-09T07:57:15.005Z,8.73
2019-03-09T07:58:14.955Z,8.77
2019-03-09T07:59:14.848Z,8.73
2019-03-09T08:00:14.767Z,8.66
2019-03-09T08:01:14.690Z,8.65
2019-03-09T08:02:14.608Z,8.69
2019-03-09T08:03:14.529Z,8.72
2019-03-09T08:04:14.448Z,8.70
2019-03-09T08:05:14.369Z,8.65
2019-03-09T08:06:14.289Z,8.69
2019-03-09T08:07:14.916Z,8.72
2019-03-09T08:08:14.130Z,8.77
2019-03-09T08:09:14.051Z,8.75
2019-03-09T08:10:13.972Z,8.77
2019-03-09T08:11:13.892Z,8.77
2019-03-09T08:12:13.862Z,8.87
2019-03-09T08:13:13.732Z,8.93
2019-03-09T08:14:13.653Z,8.85
2019-03-09T08:15:14.342Z,8.84
2019-03-09T08:16:13.496Z,8.87
2019-03-09T08:17:13.414Z,8.85
2019-03-09T08:18:13.335Z,8.85
2019-03-09T08:19:13.288Z,8.84
2019-03-09T08:20:13.176Z,8.82
2019-03-09T08:21:13.101Z,8.88
2019-03-09T08:22:13.019Z,9.03
2019-03-09T08:23:12.966Z,8.82
2019-03-09T08:24:12.865Z,8.95
2019-03-09T08:25:12.804Z,9.00
2019-03-09T08:26:12.701Z,9.06
2019-03-09T08:27:12.664Z,9.09
2019-03-09T08:28:12.565Z,9.09
2019-03-09T08:29:12.489Z,9.20
2019-03-09T08:30:12.383Z,9.29
2019-03-09T08:31:12.507Z,9.22
2019-03-09T08:32:12.234Z,9.28
2019-03-09T08:33:12.156Z,9.25
2019-03-09T08:34:12.068Z,9.24
2019-03-09T08:35:12.043Z,9.19
2019-03-09T08:36:11.936Z,9.25
2019-03-09T08:37:11.881Z,9.27
2019-03-09T08:38:14.390Z,9.38
2019-03-09T08:39:11.693Z,9.40
2019-03-09T08:40:11.592Z,9.42
2019-03-09T08:41:11.513Z,9.38
2019-03-09T08:42:11.471Z,9.50
2019-03-09T08:43:11.369Z,9.45
2019-03-09T08:44:11.277Z,9.43
2019-03-09T08:45:11.202Z,9.47
2019-03-09T08:46:11.124Z,9.63
2019-03-09T08:47:11.039Z,9.60
2019-03-09T08:48:10.963Z,9.56
2019-03-09T08:49:10.945Z,9.78
2019-03-09T08:50:11.134Z,9.68
2019-03-09T08:51:10.727Z,9.75
2019-03-09T08:52:10.702Z,9.79
2019-03-09T09:07:38.267Z,9.79
2019-03-09T09:08:38.188Z,9.71
2019-03-09T09:09:38.107Z,9.70
2019-03-09T09:10:38.029Z,9.78
2019-03-09T09:11:37.947Z,9.79
2019-03-09T09:12:37.892Z,9.68
2019-03-09T09:13:37.819Z,9.71
2019-03-09T09:14:37.708Z,9.71
2019-03-09T09:15:37.630Z,9.70
2019-03-09T09:16:37.570Z,9.83
2019-03-09T09:17:37.474Z,9.86
2019-03-09T09:18:37.410Z,9.83
2019-03-09T09:19:37.313Z,9.83
2019-03-09T09:20:37.234Z,9.83
2019-03-09T09:21:37.157Z,9.82
2019-03-09T09:22:37.284Z,9.83
2019-03-09T09:23:36.997Z,9.82
2019-03-09T09:24:36.919Z,9.88
2019-03-09T09:25:36.842Z,9.85
2019-03-09T09:26:36.760Z,9.85
2019-03-09T09:27:36.685Z,10.03
2019-03-09T09:28:36.605Z,9.88
2019-03-09T09:29:36.526Z,9.85
2019-03-09T09:30:36.447Z,9.89
2019-03-09T09:31:36.370Z,9.96
2019-03-09T09:32:36.290Z,9.97
2019-03-09T09:34:36.133Z,9.79
2019-03-09T09:35:36.057Z,9.80
2019-03-09T09:36:35.978Z,9.78
2019-03-09T09:37:35.925Z,9.80
2019-03-09T09:49:37.216Z,9.90
2019-03-09T09:50:37.163Z,9.89
2019-03-09T09:51:37.061Z,9.90
2019-03-09T09:52:37.308Z,9.90
2019-03-09T10:01:57.011Z,10.41
2019-03-09T10:02:56.953Z,10.41
2019-03-09T10:03:56.849Z,10.60
2019-03-09T10:04:56.773Z,10.43
2019-03-09T10:05:56.690Z,10.40
2019-03-09T10:06:56.612Z,10.55
2019-03-09T10:07:56.532Z,10.44
2019-03-09T10:08:56.453Z,10.58
2019-03-09T10:09:56.373Z,10.60
2019-03-09T10:10:56.294Z,10.56
2019-03-09T10:11:56.215Z,10.56
2019-03-09T10:12:56.324Z,10.56
2019-03-09T10:13:56.059Z,10.53
2019-03-09T10:14:55.979Z,10.55
2019-03-09T10:15:55.902Z,10.62
2019-03-09T10:16:55.828Z,10.47
2019-03-09T10:17:55.745Z,10.60
2019-03-09T10:18:55.691Z,10.67
2019-03-09T10:19:55.588Z,10.65
2019-03-09T10:20:55.556Z,10.66
2019-03-09T12:35:00.650Z,10.75
2019-03-09T12:36:00.569Z,10.73
2019-03-09T12:37:00.492Z,10.73
2019-03-09T12:38:00.409Z,10.83
2019-03-09T12:39:00.328Z,10.75
2019-03-09T12:40:00.383Z,10.73
2019-03-09T12:41:00.169Z,10.83
2019-03-09T12:42:00.108Z,10.80
2019-03-09T12:43:00.010Z,10.81
2019-03-09T12:43:59.930Z,10.74
2019-03-09T12:44:59.851Z,10.78
2019-03-09T12:45:59.773Z,10.74
2019-03-09T12:46:59.693Z,10.69
2019-03-09T12:47:59.615Z,10.66
2019-03-09T12:48:59.536Z,10.69
2019-03-09T12:49:59.456Z,10.60
2019-03-09T12:50:59.380Z,10.66
2019-03-09T12:51:59.299Z,10.77
2019-03-09T12:52:59.220Z,10.66
2019-03-09T12:53:59.143Z,10.81
2019-03-09T12:54:59.063Z,10.87
2019-03-09T12:55:58.992Z,10.91
2019-03-09T12:56:58.908Z,10.91
2019-03-09T12:57:58.828Z,10.88
2019-03-09T12:58:58.752Z,10.98
2019-03-09T12:59:58.672Z,10.87
2019-03-09T13:00:58.594Z,10.98
2019-03-09T13:01:58.517Z,10.99
2019-03-09T13:02:58.438Z,10.88
2019-03-09T13:03:58.376Z,10.91
2019-03-09T13:04:58.282Z,10.96
2019-03-09T13:05:58.203Z,10.98
2019-03-09T13:06:58.126Z,10.99
2019-03-09T13:07:58.047Z,10.92
2019-03-09T13:08:57.971Z,10.84
2019-03-09T13:09:57.892Z,10.91
2019-03-09T13:27:58.906Z,11.03
2019-03-09T13:28:58.625Z,11.02
2019-03-09T13:29:58.545Z,10.95
2019-03-09T13:30:58.466Z,11.00
2019-03-09T13:31:58.386Z,10.96
2019-03-09T13:32:58.307Z,10.98
2019-03-09T13:33:58.229Z,11.03
2019-03-09T13:34:58.150Z,10.95
2019-03-09T13:35:58.071Z,10.92
2019-03-09T13:36:57.992Z,10.83
2019-03-09T13:37:57.916Z,10.87
2019-03-09T13:38:57.835Z,10.83
2019-03-09T13:39:57.756Z,10.78
2019-03-09T13:40:57.680Z,10.91
2019-03-09T13:41:57.600Z,10.85
2019-03-09T13:42:57.520Z,10.75
2019-03-09T13:43:57.443Z,10.71
2019-03-09T13:44:57.365Z,10.88
2019-03-09T13:45:57.287Z,10.81
2019-03-09T13:46:57.208Z,10.77
2019-03-09T13:47:57.133Z,10.80
2019-03-09T13:48:57.053Z,10.92
2019-03-09T13:49:56.974Z,11.14
2019-03-09T13:50:56.895Z,11.35
2019-03-09T13:51:56.818Z,11.56
2019-03-09T13:52:56.740Z,11.38
2019-03-09T13:53:56.663Z,11.14
2019-03-09T13:54:56.589Z,11.11
2019-03-09T13:55:56.511Z,11.17
2019-03-09T13:56:56.430Z,11.14
2019-03-09T13:57:56.354Z,11.05
2019-03-09T13:58:56.275Z,10.96
2019-03-09T13:59:56.197Z,11.00
2019-03-09T14:00:56.122Z,10.99
2019-03-09T14:01:56.042Z,10.92
2019-03-09T14:02:55.964Z,10.84
2019-03-09T14:03:56.037Z,10.87
2019-03-09T14:04:55.811Z,10.81
2019-03-09T14:05:55.733Z,10.81
2019-03-09T14:06:55.656Z,10.81
2019-03-09T14:07:55.576Z,10.81
2019-03-09T14:08:55.499Z,10.91
2019-03-09T14:09:55.421Z,10.75
2019-03-09T14:10:55.345Z,10.71
2019-03-09T14:11:55.266Z,10.62
2019-03-09T14:12:55.193Z,10.59
2019-03-09T14:13:55.115Z,10.58
2019-03-09T14:14:55.033Z,10.43
2019-03-09T14:15:54.954Z,10.43
2019-03-09T14:16:54.875Z,10.44
2019-03-09T14:17:54.803Z,10.55
2019-03-09T14:18:54.719Z,10.55
2019-03-09T14:19:54.641Z,10.44
2019-03-09T14:20:54.565Z,10.60
2019-03-09T14:21:54.495Z,10.60
2019-03-09T14:22:54.407Z,10.59
2019-03-09T14:23:54.328Z,10.53
2019-03-09T14:24:54.254Z,10.60
2019-03-09T14:25:54.172Z,10.55
2019-03-09T14:26:54.093Z,10.56
2019-03-09T14:27:54.014Z,10.40
2019-03-09T14:28:53.940Z,10.43
2019-03-09T14:29:53.859Z,10.58
2019-03-09T14:30:53.779Z,10.58
2019-03-09T14:31:53.702Z,10.62
2019-03-09T14:32:53.624Z,10.66
2019-03-09T14:33:53.545Z,10.55
2019-03-09T14:34:53.467Z,10.56
2019-03-09T14:35:53.388Z,10.66
2019-03-09T14:36:53.310Z,10.62
2019-03-09T14:37:53.233Z,10.59
2019-03-09T14:38:53.154Z,10.59
2019-03-09T14:39:53.077Z,10.55
2019-03-09T14:40:52.999Z,10.51
2019-03-09T14:41:52.921Z,10.46
2019-03-09T14:42:52.841Z,10.55
2019-03-09T14:43:52.763Z,10.56
2019-03-09T14:44:52.688Z,10.59
2019-03-09T14:45:52.608Z,10.62
2019-03-09T14:46:52.528Z,10.59
2019-03-09T14:47:52.454Z,10.55
2019-03-09T14:48:52.372Z,10.53
2019-03-09T14:49:52.295Z,10.58
2019-03-09T14:50:52.216Z,10.59
2019-03-09T14:51:52.138Z,10.59
2019-03-09T14:52:52.063Z,10.69
2019-03-09T14:53:51.982Z,10.65
2019-03-09T14:54:51.903Z,10.67
2019-03-09T14:55:51.826Z,10.74
2019-03-09T14:56:51.747Z,10.71
2019-03-09T14:57:51.670Z,10.67
2019-03-09T14:58:51.589Z,10.71
2019-03-09T14:59:51.517Z,10.71
2019-03-09T15:00:51.433Z,10.69
2019-03-09T15:01:51.354Z,10.73
2019-03-09T15:02:51.278Z,10.73
2019-03-09T15:03:51.200Z,10.73
2019-03-09T15:04:51.121Z,10.69
2019-03-09T15:05:51.043Z,10.69
2019-03-09T15:06:50.963Z,10.62
2019-03-09T15:07:50.886Z,10.46
2019-03-09T15:08:50.807Z,10.56
2019-03-09T15:09:50.729Z,10.58
2019-03-09T15:10:50.651Z,10.53
2019-03-09T15:11:50.573Z,10.55
2019-03-09T15:12:50.494Z,10.56
2019-03-09T15:13:52.461Z,10.41
2019-03-09T15:14:50.337Z,10.47
2019-03-09T15:15:50.259Z,10.41
2019-03-09T15:16:50.188Z,10.47
2019-03-09T15:17:50.116Z,10.58
2019-03-09T15:18:50.025Z,10.55
2019-03-09T15:19:49.944Z,10.56
2019-03-09T15:20:49.871Z,10.41
2019-03-09T15:21:49.787Z,10.53
2019-03-09T15:22:49.725Z,10.56
2019-03-09T15:23:49.630Z,10.43
2019-03-09T15:24:49.552Z,10.41
2019-03-09T15:25:49.474Z,10.37
2019-03-09T15:26:49.393Z,10.56
2019-03-09T15:27:49.318Z,10.53
2019-03-09T15:28:49.237Z,10.44
2019-03-09T15:29:49.158Z,10.58
2019-03-09T15:30:49.079Z,10.65
2019-03-09T15:31:49.000Z,10.75
2019-03-09T15:32:48.924Z,10.84
2019-03-09T15:33:48.846Z,10.96
2019-03-09T15:34:48.768Z,10.96
2019-03-09T15:35:48.687Z,10.91
2019-03-09T15:36:48.608Z,10.96
2019-03-09T15:37:48.532Z,10.95
2019-03-09T15:38:48.451Z,10.87
2019-03-09T15:39:48.373Z,10.92
2019-03-09T15:40:48.296Z,10.91
2019-03-09T15:41:48.217Z,10.91
2019-03-09T15:42:48.141Z,10.95
2019-03-09T15:43:48.060Z,10.85
2019-03-09T15:44:47.983Z,10.99
2019-03-09T15:45:47.905Z,11.02
2019-03-09T15:46:47.825Z,11.00
2019-03-09T15:47:47.847Z,11.02
2019-03-09T15:48:47.674Z,11.16
2019-03-09T15:49:47.591Z,11.14
2019-03-09T15:50:47.513Z,11.06
2019-03-09T15:51:47.438Z,11.10
2019-03-09T15:52:47.359Z,11.05
2019-03-09T15:53:47.279Z,11.03
2019-03-09T15:54:47.200Z,11.13
2019-03-09T15:55:47.123Z,11.17
2019-03-09T15:56:47.045Z,11.20
2019-03-09T15:57:46.967Z,11.21
2019-03-09T15:58:46.888Z,11.36
2019-03-09T15:59:46.812Z,11.41
2019-03-09T16:00:46.732Z,11.46
2019-03-09T16:01:46.655Z,11.32
2019-03-09T16:02:46.576Z,11.42
2019-03-09T16:03:46.498Z,11.38
2019-03-09T16:04:46.421Z,11.49
2019-03-09T16:05:46.345Z,11.56
2019-03-09T16:06:46.264Z,11.54
2019-03-09T16:07:46.194Z,11.42
2019-03-09T16:08:46.109Z,11.42
2019-03-09T16:09:46.032Z,11.38
2019-03-09T16:10:45.952Z,11.34
2019-03-09T16:11:45.875Z,11.46
2019-03-09T16:12:45.798Z,11.38
2019-03-09T16:13:45.719Z,11.51
2019-03-09T16:14:45.640Z,11.54
2019-03-09T16:15:45.564Z,11.49
2019-03-09T16:16:45.483Z,11.42
2019-03-09T16:17:45.407Z,11.53
2019-03-09T16:18:45.330Z,11.61
2019-03-09T16:19:45.251Z,11.57
2019-03-09T16:20:45.172Z,11.56
2019-03-09T16:21:45.095Z,11.51
2019-03-09T16:22:45.016Z,11.54